createdAt,value
2024-01-15T00:07:22.508Z,7.50
2024-01-15T00:17:25.825Z,9.90
2024-01-15T00:27:29.447Z,8.70
2024-01-15T00:37:33.264Z,10.60
2024-01-15T00:47:36.794Z,8.10
2024-01-15T00:57:41.409Z,9.00
2024-01-15T01:07:44.837Z,6.90
2024-01-15T01:17:48.280Z,7.70
2024-01-15T01:27:51.518Z,10.90
2024-01-15T01:37:54.872Z,8.50
2024-01-15T01:47:58.289Z,9.00
2024-01-15T01:58:02.387Z,13.20
2024-01-15T02:08:05.949Z,11.60
2024-01-15T02:18:10.124Z,7.70
2024-01-15T02:28:15.598Z,6.90
2024-01-15T02:38:19.320Z,3.70
2024-01-15T02:48:22.661Z,5.90
2024-01-15T02:58:26.032Z,9.00
2024-01-15T03:08:30.648Z,9.40
2024-01-15T03:18:34.088Z,6.80
2024-01-15T03:28:37.469Z,8.70
2024-01-15T03:38:43.650Z,7.70
2024-01-15T03:48:46.946Z,7.00
2024-01-15T03:58:50.259Z,7.10
2024-01-15T04:08:53.507Z,8.10
2024-01-15T04:18:56.724Z,6.10
2024-01-15T04:29:00.393Z,5.80
2024-01-15T04:39:03.634Z,6.40
2024-01-15T04:49:07.111Z,5.00
2024-01-15T04:59:10.423Z,5.70
2024-01-15T05:09:14.769Z,6.30
2024-01-15T05:19:18.451Z,6.00
2024-01-15T05:29:21.993Z,5.40
2024-01-15T05:39:25.160Z,5.80
2024-01-15T05:49:28.547Z,5.30
2024-01-15T05:59:33.539Z,5.60
2024-01-15T06:09:36.803Z,9.40
2024-01-15T06:19:40.192Z,6.90
2024-01-15T06:29:50.557Z,8.00
2024-01-15T06:39:54.654Z,6.80
2024-01-15T06:49:57.950Z,9.80
2024-01-15T07:00:02.172Z,7.60
2024-01-15T07:10:07.495Z,9.50
2024-01-15T07:20:11.416Z,9.60
2024-01-15T07:30:15.587Z,10.60
2024-01-15T07:40:18.919Z,10.20
2024-01-15T07:50:22.199Z,10.70
2024-01-15T08:00:25.575Z,13.10
2024-01-15T08:10:29.017Z,12.50
2024-01-15T08:20:32.357Z,11.70
2024-01-15T08:30:36.319Z,14.00
2024-01-15T08:40:39.793Z,10.00
2024-01-15T08:50:43.283Z,9.70
2024-01-15T09:00:46.507Z,12.80
2024-01-15T09:10:49.956Z,12.50
2024-01-15T09:20:53.304Z,17.10
2024-01-15T09:30:57.061Z,11.90
2024-01-15T09:41:00.855Z,18.50
2024-01-15T09:51:06.336Z,14.20
2024-01-15T10:01:11.194Z,18.40
2024-01-15T10:11:14.520Z,15.30
2024-01-15T10:21:17.776Z,19.50
2024-01-15T10:31:25.283Z,12.30
2024-01-15T10:41:30.661Z,12.20
2024-01-15T10:51:33.963Z,10.20
2024-01-15T11:01:38.822Z,15.90
2024-01-15T11:11:46.256Z,16.10
2024-01-15T11:21:49.666Z,17.70
2024-01-15T11:31:55.976Z,15.90
2024-01-15T11:42:01.305Z,12.20
2024-01-15T11:52:06.434Z,12.40
2024-01-15T12:02:09.835Z,10.00
2024-01-15T12:12:25.841Z,13.10
2024-01-15T12:22:30.079Z,11.60
2024-01-15T12:32:35.975Z,10.40
2024-01-15T12:42:41.190Z,9.90
2024-01-15T12:52:45.024Z,13.20
2024-01-15T13:02:48.770Z,11.70
2024-01-15T13:12:53.605Z,11.40
2024-01-15T13:22:56.859Z,15.20
2024-01-15T13:33:05.238Z,15.10
2024-01-15T13:43:09.656Z,12.20
2024-01-15T13:53:13.232Z,13.10
2024-01-15T14:03:16.852Z,12.20
2024-01-15T14:13:20.225Z,14.70
2024-01-15T14:23:23.770Z,24.30
2024-01-15T14:33:28.195Z,21.30
2024-01-15T14:43:31.693Z,30.40
2024-01-15T14:53:34.933Z,17.10
2024-01-15T15:03:38.336Z,17.20
2024-01-15T15:13:45.578Z,24.80
2024-01-15T15:23:49.865Z,17.50
2024-01-15T15:33:53.158Z,23.10
2024-01-15T15:43:56.754Z,23.30
2024-01-15T15:53:59.929Z,17.30
2024-01-15T16:04:05.525Z,15.00
2024-01-15T16:14:08.973Z,20.30
2024-01-15T16:24:20.396Z,32.30
2024-01-15T16:34:29.972Z,55.20
2024-01-15T16:44:33.634Z,38.10
2024-01-15T16:54:38.753Z,53.50
2024-01-15T17:04:43.809Z,61.90
2024-01-15T17:14:46.941Z,55.90
2024-01-15T17:24:52.963Z,41.00
2024-01-15T17:34:56.407Z,38.80
2024-01-15T17:44:59.704Z,38.40
2024-01-15T17:55:04.279Z,44.20
2024-01-15T18:05:11.092Z,40.30
2024-01-15T18:15:14.552Z,55.30
2024-01-15T18:25:17.922Z,34.20
2024-01-15T18:35:22.948Z,41.00
2024-01-15T18:45:26.424Z,63.60
2024-01-15T18:55:29.592Z,33.90
2024-01-15T19:05:32.967Z,26.80
2024-01-15T19:15:36.224Z,20.80
2024-01-15T19:25:41.640Z,51.90
2024-01-15T19:35:45.497Z,40.20
2024-01-15T19:46:13.386Z,35.20
2024-01-15T19:56:24.886Z,32.70
2024-01-15T20:06:29.151Z,34.90
2024-01-15T20:16:32.873Z,21.20
2024-01-15T20:26:38.923Z,33.90
2024-01-15T20:36:42.770Z,27.70
2024-01-15T20:46:47.664Z,21.30
2024-01-15T20:56:53.309Z,22.20
2024-01-15T21:06:59.529Z,17.40
2024-01-15T21:17:04.759Z,26.70
2024-01-15T21:27:07.960Z,24.70
2024-01-15T21:37:13.850Z,19.60
2024-01-15T21:47:17.185Z,18.60
2024-01-15T21:57:20.623Z,13.60
2024-01-15T22:07:23.861Z,19.40
2024-01-15T22:17:27.270Z,18.00
2024-01-15T22:27:30.555Z,14.60
2024-01-15T22:37:34.764Z,13.70
2024-01-15T22:47:38.322Z,15.90
2024-01-15T22:57:41.916Z,12.40
2024-01-15T23:07:45.129Z,18.00
2024-01-15T23:17:48.870Z,15.90
2024-01-15T23:27:52.683Z,11.10
2024-01-15T23:37:56.225Z,10.40
2024-01-15T23:47:59.530Z,12.30
2024-01-15T23:58:02.711Z,10.50
